CheckWX is a tool to help pilots better visualize weather data.  It is not intended as a substitute for an official pre-flight weather briefing.

12:23:19 UTC

ZSNJ TAF
Nanjing Lukou Airport
Nanjing, China
TAF ZSNJ 220903Z 2212/2312 09003MPS 3000 HZ NSC TX15/2306Z TN05/2221Z

Mar-22@
12:00 UTC

Mar-22 @ 12:00 UTC

Mar-23@
12:00 UTC

Mar-23 @ 12:00 UTC

TAF ZSNJ 220903Z 2212/2312 09003MPS 3000 HZ NSC TX15/2306Z TN05/2221Z
Wind
  • 090° at 6 KTS
Conditions
Haze
Cloud Levels
  • No significant clouds